sensor_id;sensor_type;location;lat;lon;timestamp;P1;durP1;ratioP1;P2;durP2;ratioP2
19095;SDS011;9680;52.520;13.332;2022-10-31T00:02:19;35.30;;;15.77;;
19095;SDS011;9680;52.520;13.332;2022-10-31T00:04:44;34.65;;;15.88;;
19095;SDS011;9680;52.520;13.332;2022-10-31T00:07:10;39.03;;;16.58;;
19095;SDS011;9680;52.520;13.332;2022-10-31T00:09:35;42.63;;;16.50;;
19095;SDS011;9680;52.520;13.332;2022-10-31T00:12:01;38.03;;;15.63;;
19095;SDS011;9680;52.520;13.332;2022-10-31T00:14:26;46.28;;;15.65;;
19095;SDS011;9680;52.520;13.332;2022-10-31T00:16:52;32.83;;;15.47;;
19095;SDS011;9680;52.520;13.332;2022-10-31T00:19:17;39.65;;;15.85;;
19095;SDS011;9680;52.520;13.332;2022-10-31T00:21:43;39.22;;;16.40;;
19095;SDS011;9680;52.520;13.332;2022-10-31T00:24:08;33.97;;;15.67;;
19095;SDS011;9680;52.520;13.332;2022-10-31T00:26:33;36.23;;;15.57;;
19095;SDS011;9680;52.520;13.332;2022-10-31T00:28:59;29.27;;;14.32;;
19095;SDS011;9680;52.520;13.332;2022-10-31T00:31:26;33.37;;;14.80;;
19095;SDS011;9680;52.520;13.332;2022-10-31T00:33:51;29.93;;;14.10;;
19095;SDS011;9680;52.520;13.332;2022-10-31T00:36:17;31.33;;;14.67;;
19095;SDS011;9680;52.520;13.332;2022-10-31T00:38:44;31.60;;;15.25;;
19095;SDS011;9680;52.520;13.332;2022-10-31T00:41:11;32.42;;;14.52;;
19095;SDS011;9680;52.520;13.332;2022-10-31T00:43:39;28.48;;;13.75;;
19095;SDS011;9680;52.520;13.332;2022-10-31T00:46:05;27.63;;;14.07;;
19095;SDS011;9680;52.520;13.332;2022-10-31T00:48:31;31.60;;;14.00;;
19095;SDS011;9680;52.520;13.332;2022-10-31T00:50:56;32.30;;;14.10;;
19095;SDS011;9680;52.520;13.332;2022-10-31T00:53:22;34.70;;;14.40;;
19095;SDS011;9680;52.520;13.332;2022-10-31T00:55:47;27.20;;;13.13;;
19095;SDS011;9680;52.520;13.332;2022-10-31T00:58:13;35.20;;;13.48;;
19095;SDS011;9680;52.520;13.332;2022-10-31T01:00:39;27.98;;;13.93;;
19095;SDS011;9680;52.520;13.332;2022-10-31T01:03:06;28.92;;;13.95;;
19095;SDS011;9680;52.520;13.332;2022-10-31T01:05:31;27.52;;;13.05;;
19095;SDS011;9680;52.520;13.332;2022-10-31T01:07:57;28.80;;;13.40;;
19095;SDS011;9680;52.520;13.332;2022-10-31T01:10:25;31.17;;;13.82;;
19095;SDS011;9680;52.520;13.332;2022-10-31T01:12:51;32.83;;;13.68;;
19095;SDS011;9680;52.520;13.332;2022-10-31T01:15:18;28.80;;;13.60;;
19095;SDS011;9680;52.520;13.332;2022-10-31T01:17:45;33.87;;;13.87;;
19095;SDS011;9680;52.520;13.332;2022-10-31T01:20:11;31.67;;;13.23;;
19095;SDS011;9680;52.520;13.332;2022-10-31T01:22:38;28.90;;;13.23;;
19095;SDS011;9680;52.520;13.332;2022-10-31T01:25:04;28.33;;;13.17;;
19095;SDS011;9680;52.520;13.332;2022-10-31T01:27:31;28.23;;;12.70;;
19095;SDS011;9680;52.520;13.332;2022-10-31T01:29:56;28.57;;;13.40;;
19095;SDS011;9680;52.520;13.332;2022-10-31T01:32:22;24.43;;;12.27;;
19095;SDS011;9680;52.520;13.332;2022-10-31T01:34:49;37.00;;;13.90;;
19095;SDS011;9680;52.520;13.332;2022-10-31T01:37:15;26.67;;;12.20;;
19095;SDS011;9680;52.520;13.332;2022-10-31T01:39:41;32.75;;;12.65;;
19095;SDS011;9680;52.520;13.332;2022-10-31T01:42:06;32.78;;;13.45;;
19095;SDS011;9680;52.520;13.332;2022-10-31T01:47:12;27.15;;;12.52;;
19095;SDS011;9680;52.520;13.332;2022-10-31T01:49:51;28.40;;;12.47;;
19095;SDS011;9680;52.520;13.332;2022-10-31T01:52:27;30.50;;;12.90;;
19095;SDS011;9680;52.520;13.332;2022-10-31T01:54:59;25.83;;;12.53;;
19095;SDS011;9680;52.520;13.332;2022-10-31T01:57:28;26.47;;;12.50;;
19095;SDS011;9680;52.520;13.332;2022-10-31T01:59:57;29.10;;;13.48;;
19095;SDS011;9680;52.520;13.332;2022-10-31T02:02:25;28.83;;;12.40;;
19095;SDS011;9680;52.520;13.332;2022-10-31T02:04:55;29.30;;;12.87;;
19095;SDS011;9680;52.520;13.332;2022-10-31T02:07:30;28.27;;;13.03;;
19095;SDS011;9680;52.520;13.332;2022-10-31T02:10:02;30.13;;;12.43;;
19095;SDS011;9680;52.520;13.332;2022-10-31T02:12:28;25.25;;;12.23;;
19095;SDS011;9680;52.520;13.332;2022-10-31T02:14:59;25.83;;;12.93;;
19095;SDS011;9680;52.520;13.332;2022-10-31T02:17:25;29.13;;;13.50;;
19095;SDS011;9680;52.520;13.332;2022-10-31T02:19:57;23.93;;;12.10;;
19095;SDS011;9680;52.520;13.332;2022-10-31T02:22:49;25.50;;;11.77;;
19095;SDS011;9680;52.520;13.332;2022-10-31T02:33:31;27.63;;;11.97;;
19095;SDS011;9680;52.520;13.332;2022-10-31T02:36:10;31.25;;;12.48;;
19095;SDS011;9680;52.520;13.332;2022-10-31T02:47:22;25.50;;;11.40;;
19095;SDS011;9680;52.520;13.332;2022-10-31T02:50:02;35.87;;;12.30;;
19095;SDS011;9680;52.520;13.332;2022-10-31T02:52:33;24.77;;;11.97;;
19095;SDS011;9680;52.520;13.332;2022-10-31T02:55:12;25.03;;;12.20;;
19095;SDS011;9680;52.520;13.332;2022-10-31T02:58:01;33.57;;;12.37;;
19095;SDS011;9680;52.520;13.332;2022-10-31T03:00:36;31.40;;;12.00;;
19095;SDS011;9680;52.520;13.332;2022-10-31T03:05:40;25.23;;;12.03;;
19095;SDS011;9680;52.520;13.332;2022-10-31T03:08:35;24.17;;;11.50;;
19095;SDS011;9680;52.520;13.332;2022-10-31T03:11:15;24.57;;;11.63;;
19095;SDS011;9680;52.520;13.332;2022-10-31T03:16:28;23.20;;;11.37;;
19095;SDS011;9680;52.520;13.332;2022-10-31T03:19:08;23.87;;;11.47;;
19095;SDS011;9680;52.520;13.332;2022-10-31T03:21:47;22.03;;;10.73;;
19095;SDS011;9680;52.520;13.332;2022-10-31T03:24:21;24.07;;;11.90;;
19095;SDS011;9680;52.520;13.332;2022-10-31T03:26:51;28.20;;;11.98;;
19095;SDS011;9680;52.520;13.332;2022-10-31T03:29:20;25.83;;;11.47;;
19095;SDS011;9680;52.520;13.332;2022-10-31T03:34:20;24.20;;;11.70;;
19095;SDS011;9680;52.520;13.332;2022-10-31T03:36:47;26.17;;;10.68;;
19095;SDS011;9680;52.520;13.332;2022-10-31T03:39:17;26.90;;;11.30;;
19095;SDS011;9680;52.520;13.332;2022-10-31T03:41:48;25.70;;;11.23;;
19095;SDS011;9680;52.520;13.332;2022-10-31T03:44:19;31.40;;;11.57;;
19095;SDS011;9680;52.520;13.332;2022-10-31T03:46:55;25.27;;;11.00;;
19095;SDS011;9680;52.520;13.332;2022-10-31T03:49:20;25.70;;;11.45;;
19095;SDS011;9680;52.520;13.332;2022-10-31T03:54:22;27.03;;;11.07;;
19095;SDS011;9680;52.520;13.332;2022-10-31T03:57:05;24.00;;;10.60;;
19095;SDS011;9680;52.520;13.332;2022-10-31T03:59:36;27.93;;;11.10;;
19095;SDS011;9680;52.520;13.332;2022-10-31T04:02:20;31.85;;;10.77;;
19095;SDS011;9680;52.520;13.332;2022-10-31T04:04:50;22.73;;;10.38;;
19095;SDS011;9680;52.520;13.332;2022-10-31T04:07:17;24.13;;;11.15;;
19095;SDS011;9680;52.520;13.332;2022-10-31T04:09:48;21.67;;;10.60;;
19095;SDS011;9680;52.520;13.332;2022-10-31T04:12:19;23.43;;;10.10;;
19095;SDS011;9680;52.520;13.332;2022-10-31T04:15:03;23.37;;;11.10;;
19095;SDS011;9680;52.520;13.332;2022-10-31T04:17:33;23.80;;;9.97;;
19095;SDS011;9680;52.520;13.332;2022-10-31T04:20:02;20.77;;;10.17;;
19095;SDS011;9680;52.520;13.332;2022-10-31T04:22:28;20.83;;;10.30;;
19095;SDS011;9680;52.520;13.332;2022-10-31T04:24:54;23.60;;;11.20;;
19095;SDS011;9680;52.520;13.332;2022-10-31T04:27:19;30.55;;;11.25;;
19095;SDS011;9680;52.520;13.332;2022-10-31T04:29:45;21.00;;;10.20;;
19095;SDS011;9680;52.520;13.332;2022-10-31T04:32:11;22.83;;;10.87;;
19095;SDS011;9680;52.520;13.332;2022-10-31T04:34:38;21.73;;;10.47;;
19095;SDS011;9680;52.520;13.332;2022-10-31T04:37:04;24.00;;;10.40;;
19095;SDS011;9680;52.520;13.332;2022-10-31T04:39:29;21.13;;;10.57;;
19095;SDS011;9680;52.520;13.332;2022-10-31T04:42:21;21.33;;;9.60;;
19095;SDS011;9680;52.520;13.332;2022-10-31T04:44:46;24.47;;;11.33;;
19095;SDS011;9680;52.520;13.332;2022-10-31T04:47:15;22.73;;;10.37;;
19095;SDS011;9680;52.520;13.332;2022-10-31T04:49:42;22.87;;;10.47;;
19095;SDS011;9680;52.520;13.332;2022-10-31T04:52:09;23.87;;;10.20;;
19095;SDS011;9680;52.520;13.332;2022-10-31T04:54:35;20.07;;;9.83;;
19095;SDS011;9680;52.520;13.332;2022-10-31T04:57:26;25.27;;;10.30;;
19095;SDS011;9680;52.520;13.332;2022-10-31T04:59:54;23.87;;;10.27;;
19095;SDS011;9680;52.520;13.332;2022-10-31T05:02:22;23.67;;;10.83;;
19095;SDS011;9680;52.520;13.332;2022-10-31T05:04:53;26.57;;;11.03;;
19095;SDS011;9680;52.520;13.332;2022-10-31T05:07:19;27.87;;;10.33;;
19095;SDS011;9680;52.520;13.332;2022-10-31T05:09:45;22.03;;;9.47;;
19095;SDS011;9680;52.520;13.332;2022-10-31T05:12:11;25.63;;;10.50;;
19095;SDS011;9680;52.520;13.332;2022-10-31T05:15:04;22.20;;;10.13;;
19095;SDS011;9680;52.520;13.332;2022-10-31T05:18:08;23.20;;;10.37;;
19095;SDS011;9680;52.520;13.332;2022-10-31T05:20:56;22.17;;;10.20;;
19095;SDS011;9680;52.520;13.332;2022-10-31T05:23:32;24.33;;;10.80;;
19095;SDS011;9680;52.520;13.332;2022-10-31T05:25:58;24.92;;;10.23;;
19095;SDS011;9680;52.520;13.332;2022-10-31T05:28:24;24.03;;;10.10;;
19095;SDS011;9680;52.520;13.332;2022-10-31T05:30:49;29.77;;;11.98;;
19095;SDS011;9680;52.520;13.332;2022-10-31T05:33:15;29.48;;;11.30;;
19095;SDS011;9680;52.520;13.332;2022-10-31T05:35:59;25.07;;;10.40;;
19095;SDS011;9680;52.520;13.332;2022-10-31T05:38:24;24.55;;;11.43;;
19095;SDS011;9680;52.520;13.332;2022-10-31T05:40:53;23.70;;;10.17;;
19095;SDS011;9680;52.520;13.332;2022-10-31T05:43:22;27.70;;;10.37;;
19095;SDS011;9680;52.520;13.332;2022-10-31T05:45:51;22.57;;;10.23;;
19095;SDS011;9680;52.520;13.332;2022-10-31T05:48:37;23.13;;;9.93;;
19095;SDS011;9680;52.520;13.332;2022-10-31T05:51:21;24.90;;;11.57;;
19095;SDS011;9680;52.520;13.332;2022-10-31T05:53:47;27.30;;;10.07;;
19095;SDS011;9680;52.520;13.332;2022-10-31T05:56:12;26.50;;;10.60;;
19095;SDS011;9680;52.520;13.332;2022-10-31T05:58:39;25.58;;;11.00;;
19095;SDS011;9680;52.520;13.332;2022-10-31T06:01:05;23.13;;;10.03;;
19095;SDS011;9680;52.520;13.332;2022-10-31T06:03:31;24.73;;;10.90;;
19095;SDS011;9680;52.520;13.332;2022-10-31T06:05:59;22.45;;;10.80;;
19095;SDS011;9680;52.520;13.332;2022-10-31T06:08:35;24.53;;;11.13;;
19095;SDS011;9680;52.520;13.332;2022-10-31T06:11:04;24.00;;;11.43;;
19095;SDS011;9680;52.520;13.332;2022-10-31T06:13:48;23.60;;;11.60;;
19095;SDS011;9680;52.520;13.332;2022-10-31T06:16:24;27.85;;;10.43;;
19095;SDS011;9680;52.520;13.332;2022-10-31T06:18:50;32.70;;;12.07;;
19095;SDS011;9680;52.520;13.332;2022-10-31T06:21:16;27.50;;;10.80;;
19095;SDS011;9680;52.520;13.332;2022-10-31T06:23:42;24.17;;;10.93;;
19095;SDS011;9680;52.520;13.332;2022-10-31T06:26:27;24.95;;;10.73;;
19095;SDS011;9680;52.520;13.332;2022-10-31T06:28:53;29.10;;;11.20;;
19095;SDS011;9680;52.520;13.332;2022-10-31T06:31:42;27.13;;;11.02;;
19095;SDS011;9680;52.520;13.332;2022-10-31T06:34:10;23.50;;;10.93;;
19095;SDS011;9680;52.520;13.332;2022-10-31T06:37:02;28.42;;;11.23;;
19095;SDS011;9680;52.520;13.332;2022-10-31T06:39:29;26.67;;;10.95;;
19095;SDS011;9680;52.520;13.332;2022-10-31T06:41:55;27.45;;;11.65;;
19095;SDS011;9680;52.520;13.332;2022-10-31T06:44:22;25.15;;;11.43;;
19095;SDS011;9680;52.520;13.332;2022-10-31T06:46:53;27.45;;;10.68;;
19095;SDS011;9680;52.520;13.332;2022-10-31T06:49:57;22.27;;;11.23;;
19095;SDS011;9680;52.520;13.332;2022-10-31T06:52:24;26.17;;;10.73;;
19095;SDS011;9680;52.520;13.332;2022-10-31T06:54:50;29.05;;;11.45;;
19095;SDS011;9680;52.520;13.332;2022-10-31T06:57:15;21.92;;;10.63;;
19095;SDS011;9680;52.520;13.332;2022-10-31T06:59:41;32.67;;;11.20;;
19095;SDS011;9680;52.520;13.332;2022-10-31T07:02:14;25.15;;;10.73;;
19095;SDS011;9680;52.520;13.332;2022-10-31T07:04:41;24.37;;;11.07;;
19095;SDS011;9680;52.520;13.332;2022-10-31T07:07:07;28.03;;;11.70;;
19095;SDS011;9680;52.520;13.332;2022-10-31T07:09:35;32.67;;;11.45;;
19095;SDS011;9680;52.520;13.332;2022-10-31T07:12:02;37.95;;;11.23;;
19095;SDS011;9680;52.520;13.332;2022-10-31T07:14:30;25.08;;;11.30;;
19095;SDS011;9680;52.520;13.332;2022-10-31T07:16:55;30.92;;;11.85;;
19095;SDS011;9680;52.520;13.332;2022-10-31T07:19:27;26.17;;;10.65;;
19095;SDS011;9680;52.520;13.332;2022-10-31T07:21:52;27.98;;;11.15;;
19095;SDS011;9680;52.520;13.332;2022-10-31T07:24:18;25.48;;;11.63;;
19095;SDS011;9680;52.520;13.332;2022-10-31T07:27:04;27.40;;;10.82;;
19095;SDS011;9680;52.520;13.332;2022-10-31T07:29:30;23.75;;;11.57;;
19095;SDS011;9680;52.520;13.332;2022-10-31T07:31:56;26.98;;;12.15;;
19095;SDS011;9680;52.520;13.332;2022-10-31T07:34:25;26.15;;;11.80;;
19095;SDS011;9680;52.520;13.332;2022-10-31T07:37:26;26.35;;;11.82;;
19095;SDS011;9680;52.520;13.332;2022-10-31T07:39:54;33.30;;;12.55;;
19095;SDS011;9680;52.520;13.332;2022-10-31T07:42:19;31.20;;;12.47;;
19095;SDS011;9680;52.520;13.332;2022-10-31T07:44:44;29.67;;;12.95;;
19095;SDS011;9680;52.520;13.332;2022-10-31T07:47:49;34.35;;;13.48;;
19095;SDS011;9680;52.520;13.332;2022-10-31T07:50:36;28.55;;;12.65;;
19095;SDS011;9680;52.520;13.332;2022-10-31T07:53:20;32.25;;;13.07;;
19095;SDS011;9680;52.520;13.332;2022-10-31T07:55:52;29.73;;;12.77;;
19095;SDS011;9680;52.520;13.332;2022-10-31T07:58:18;28.15;;;13.18;;
19095;SDS011;9680;52.520;13.332;2022-10-31T08:00:45;33.38;;;13.85;;
19095;SDS011;9680;52.520;13.332;2022-10-31T08:03:16;35.30;;;13.20;;
19095;SDS011;9680;52.520;13.332;2022-10-31T08:05:52;29.92;;;13.68;;
19095;SDS011;9680;52.520;13.332;2022-10-31T08:08:32;29.17;;;13.55;;
19095;SDS011;9680;52.520;13.332;2022-10-31T08:10:58;41.13;;;15.38;;
19095;SDS011;9680;52.520;13.332;2022-10-31T08:13:23;36.83;;;14.43;;
19095;SDS011;9680;52.520;13.332;2022-10-31T08:15:50;27.83;;;13.95;;
19095;SDS011;9680;52.520;13.332;2022-10-31T08:18:22;34.40;;;14.38;;
19095;SDS011;9680;52.520;13.332;2022-10-31T08:20:49;38.05;;;14.48;;
19095;SDS011;9680;52.520;13.332;2022-10-31T08:23:16;26.48;;;13.57;;
19095;SDS011;9680;52.520;13.332;2022-10-31T08:25:42;39.08;;;15.07;;
19095;SDS011;9680;52.520;13.332;2022-10-31T08:28:08;32.85;;;14.82;;
19095;SDS011;9680;52.520;13.332;2022-10-31T08:30:37;43.08;;;14.95;;
19095;SDS011;9680;52.520;13.332;2022-10-31T08:33:26;35.10;;;15.07;;
19095;SDS011;9680;52.520;13.332;2022-10-31T08:36:12;32.53;;;13.98;;
19095;SDS011;9680;52.520;13.332;2022-10-31T08:38:50;34.92;;;14.57;;
19095;SDS011;9680;52.520;13.332;2022-10-31T08:41:16;37.55;;;14.55;;
19095;SDS011;9680;52.520;13.332;2022-10-31T08:43:42;39.95;;;15.45;;
19095;SDS011;9680;52.520;13.332;2022-10-31T08:46:10;36.03;;;16.05;;
19095;SDS011;9680;52.520;13.332;2022-10-31T08:48:38;35.58;;;14.98;;
19095;SDS011;9680;52.520;13.332;2022-10-31T08:51:03;30.73;;;14.48;;
19095;SDS011;9680;52.520;13.332;2022-10-31T08:53:30;36.08;;;15.60;;
19095;SDS011;9680;52.520;13.332;2022-10-31T08:56:14;33.65;;;14.85;;
19095;SDS011;9680;52.520;13.332;2022-10-31T08:58:40;43.63;;;16.40;;
19095;SDS011;9680;52.520;13.332;2022-10-31T09:01:07;36.47;;;15.60;;
19095;SDS011;9680;52.520;13.332;2022-10-31T09:03:34;35.10;;;14.70;;
19095;SDS011;9680;52.520;13.332;2022-10-31T09:06:00;38.60;;;15.20;;
19095;SDS011;9680;52.520;13.332;2022-10-31T09:08:34;42.08;;;15.27;;
19095;SDS011;9680;52.520;13.332;2022-10-31T09:11:16;33.72;;;15.32;;
19095;SDS011;9680;52.520;13.332;2022-10-31T09:14:14;34.38;;;15.90;;
19095;SDS011;9680;52.520;13.332;2022-10-31T09:17:10;39.42;;;15.43;;
19095;SDS011;9680;52.520;13.332;2022-10-31T09:20:07;33.15;;;16.23;;
19095;SDS011;9680;52.520;13.332;2022-10-31T09:22:34;39.75;;;16.60;;
19095;SDS011;9680;52.520;13.332;2022-10-31T09:25:00;38.42;;;15.93;;
19095;SDS011;9680;52.520;13.332;2022-10-31T09:27:26;41.60;;;17.27;;
19095;SDS011;9680;52.520;13.332;2022-10-31T09:29:54;38.47;;;16.52;;
19095;SDS011;9680;52.520;13.332;2022-10-31T09:32:20;37.35;;;16.42;;
19095;SDS011;9680;52.520;13.332;2022-10-31T09:34:46;42.88;;;16.35;;
19095;SDS011;9680;52.520;13.332;2022-10-31T09:37:15;39.45;;;16.45;;
19095;SDS011;9680;52.520;13.332;2022-10-31T09:39:40;45.05;;;17.52;;
19095;SDS011;9680;52.520;13.332;2022-10-31T09:47:59;42.80;;;17.65;;
19095;SDS011;9680;52.520;13.332;2022-10-31T09:50:29;40.75;;;17.40;;
19095;SDS011;9680;52.520;13.332;2022-10-31T09:55:50;42.53;;;17.50;;
19095;SDS011;9680;52.520;13.332;2022-10-31T09:58:19;44.97;;;17.33;;
19095;SDS011;9680;52.520;13.332;2022-10-31T10:00:48;48.50;;;18.60;;
19095;SDS011;9680;52.520;13.332;2022-10-31T10:06:29;45.83;;;17.30;;
19095;SDS011;9680;52.520;13.332;2022-10-31T10:09:24;46.85;;;17.75;;
19095;SDS011;9680;52.520;13.332;2022-10-31T10:25:19;39.20;;;18.05;;
19095;SDS011;9680;52.520;13.332;2022-10-31T10:28:00;38.78;;;16.52;;
19095;SDS011;9680;52.520;13.332;2022-10-31T10:30:50;40.30;;;17.70;;
19095;SDS011;9680;52.520;13.332;2022-10-31T10:33:33;42.47;;;17.25;;
19095;SDS011;9680;52.520;13.332;2022-10-31T10:36:10;43.15;;;17.23;;
19095;SDS011;9680;52.520;13.332;2022-10-31T10:41:20;44.05;;;17.20;;
19095;SDS011;9680;52.520;13.332;2022-10-31T10:43:49;37.65;;;16.83;;
19095;SDS011;9680;52.520;13.332;2022-10-31T10:46:40;40.88;;;17.30;;
19095;SDS011;9680;52.520;13.332;2022-10-31T10:49:30;37.70;;;17.23;;
19095;SDS011;9680;52.520;13.332;2022-10-31T10:58:03;46.88;;;17.27;;
19095;SDS011;9680;52.520;13.332;2022-10-31T11:00:36;40.38;;;17.60;;
19095;SDS011;9680;52.520;13.332;2022-10-31T11:03:05;37.63;;;17.20;;
19095;SDS011;9680;52.520;13.332;2022-10-31T11:05:39;44.00;;;18.55;;
19095;SDS011;9680;52.520;13.332;2022-10-31T11:08:05;40.75;;;18.05;;
19095;SDS011;9680;52.520;13.332;2022-10-31T11:10:31;43.05;;;19.00;;
19095;SDS011;9680;52.520;13.332;2022-10-31T11:18:39;41.05;;;17.35;;
19095;SDS011;9680;52.520;13.332;2022-10-31T11:21:17;38.95;;;17.25;;
19095;SDS011;9680;52.520;13.332;2022-10-31T11:24:01;39.60;;;18.17;;
19095;SDS011;9680;52.520;13.332;2022-10-31T11:26:27;37.20;;;17.13;;
19095;SDS011;9680;52.520;13.332;2022-10-31T11:28:57;43.17;;;17.92;;
19095;SDS011;9680;52.520;13.332;2022-10-31T11:31:23;36.40;;;17.95;;
19095;SDS011;9680;52.520;13.332;2022-10-31T11:33:52;40.63;;;17.13;;
19095;SDS011;9680;52.520;13.332;2022-10-31T11:36:32;38.13;;;17.50;;
19095;SDS011;9680;52.520;13.332;2022-10-31T11:39:01;41.85;;;18.13;;
19095;SDS011;9680;52.520;13.332;2022-10-31T11:41:29;45.08;;;18.23;;
19095;SDS011;9680;52.520;13.332;2022-10-31T11:44:05;38.75;;;18.13;;
19095;SDS011;9680;52.520;13.332;2022-10-31T11:46:44;48.88;;;19.73;;
19095;SDS011;9680;52.520;13.332;2022-10-31T11:51:42;44.10;;;19.42;;
19095;SDS011;9680;52.520;13.332;2022-10-31T11:54:18;36.85;;;18.77;;
19095;SDS011;9680;52.520;13.332;2022-10-31T11:56:48;42.03;;;18.80;;
19095;SDS011;9680;52.520;13.332;2022-10-31T12:01:54;39.63;;;18.20;;
19095;SDS011;9680;52.520;13.332;2022-10-31T12:04:33;40.70;;;17.67;;
19095;SDS011;9680;52.520;13.332;2022-10-31T12:07:05;42.90;;;18.45;;
19095;SDS011;9680;52.520;13.332;2022-10-31T12:09:34;50.55;;;18.02;;
19095;SDS011;9680;52.520;13.332;2022-10-31T12:14:49;42.03;;;18.30;;
19095;SDS011;9680;52.520;13.332;2022-10-31T12:17:20;42.22;;;18.45;;
19095;SDS011;9680;52.520;13.332;2022-10-31T12:31:11;44.30;;;17.75;;
19095;SDS011;9680;52.520;13.332;2022-10-31T12:41:50;45.25;;;18.48;;
19095;SDS011;9680;52.520;13.332;2022-10-31T12:47:38;45.63;;;18.42;;
19095;SDS011;9680;52.520;13.332;2022-10-31T12:58:38;44.85;;;16.67;;
19095;SDS011;9680;52.520;13.332;2022-10-31T13:01:21;36.35;;;17.30;;
19095;SDS011;9680;52.520;13.332;2022-10-31T13:06:23;38.42;;;18.13;;
19095;SDS011;9680;52.520;13.332;2022-10-31T13:09:08;41.42;;;16.70;;
19095;SDS011;9680;52.520;13.332;2022-10-31T13:11:48;44.15;;;18.05;;
19095;SDS011;9680;52.520;13.332;2022-10-31T13:16:52;43.13;;;18.00;;
19095;SDS011;9680;52.520;13.332;2022-10-31T13:19:54;41.10;;;18.38;;
19095;SDS011;9680;52.520;13.332;2022-10-31T13:22:17;35.72;;;15.85;;
19095;SDS011;9680;52.520;13.332;2022-10-31T13:24:58;38.25;;;17.15;;
19095;SDS011;9680;52.520;13.332;2022-10-31T13:27:48;42.28;;;18.50;;
19095;SDS011;9680;52.520;13.332;2022-10-31T13:30:23;42.72;;;19.05;;
19095;SDS011;9680;52.520;13.332;2022-10-31T13:32:58;46.70;;;21.33;;
19095;SDS011;9680;52.520;13.332;2022-10-31T13:38:22;47.97;;;21.00;;
19095;SDS011;9680;52.520;13.332;2022-10-31T13:41:10;51.05;;;21.38;;
19095;SDS011;9680;52.520;13.332;2022-10-31T13:46:45;56.47;;;21.92;;
19095;SDS011;9680;52.520;13.332;2022-10-31T13:49:36;52.42;;;21.52;;
19095;SDS011;9680;52.520;13.332;2022-10-31T13:54:38;54.85;;;22.35;;
19095;SDS011;9680;52.520;13.332;2022-10-31T13:57:07;49.25;;;21.75;;
19095;SDS011;9680;52.520;13.332;2022-10-31T13:59:45;52.28;;;22.25;;
19095;SDS011;9680;52.520;13.332;2022-10-31T14:02:15;48.03;;;21.88;;
19095;SDS011;9680;52.520;13.332;2022-10-31T14:04:50;55.63;;;21.75;;
19095;SDS011;9680;52.520;13.332;2022-10-31T14:07:20;50.90;;;21.33;;
19095;SDS011;9680;52.520;13.332;2022-10-31T14:12:38;50.33;;;21.48;;
19095;SDS011;9680;52.520;13.332;2022-10-31T14:17:51;55.13;;;22.63;;
19095;SDS011;9680;52.520;13.332;2022-10-31T14:20:33;56.50;;;21.50;;
19095;SDS011;9680;52.520;13.332;2022-10-31T14:26:06;55.65;;;22.08;;
19095;SDS011;9680;52.520;13.332;2022-10-31T14:28:41;57.75;;;22.63;;
19095;SDS011;9680;52.520;13.332;2022-10-31T14:31:27;65.38;;;23.60;;
19095;SDS011;9680;52.520;13.332;2022-10-31T14:34:01;61.47;;;23.02;;
19095;SDS011;9680;52.520;13.332;2022-10-31T14:36:56;50.50;;;22.10;;
19095;SDS011;9680;52.520;13.332;2022-10-31T14:39:54;67.05;;;22.95;;
19095;SDS011;9680;52.520;13.332;2022-10-31T14:48:13;60.85;;;22.88;;
19095;SDS011;9680;52.520;13.332;2022-10-31T14:50:57;65.45;;;24.25;;
19095;SDS011;9680;52.520;13.332;2022-10-31T14:53:26;62.83;;;23.73;;
19095;SDS011;9680;52.520;13.332;2022-10-31T14:56:00;76.10;;;25.33;;
19095;SDS011;9680;52.520;13.332;2022-10-31T14:58:37;65.75;;;24.80;;
19095;SDS011;9680;52.520;13.332;2022-10-31T15:01:05;71.55;;;24.85;;
19095;SDS011;9680;52.520;13.332;2022-10-31T15:03:32;67.53;;;24.35;;
19095;SDS011;9680;52.520;13.332;2022-10-31T15:06:03;67.75;;;25.17;;
19095;SDS011;9680;52.520;13.332;2022-10-31T15:13:56;72.57;;;25.35;;
19095;SDS011;9680;52.520;13.332;2022-10-31T15:16:27;72.68;;;25.38;;
19095;SDS011;9680;52.520;13.332;2022-10-31T15:18:59;77.85;;;26.15;;
19095;SDS011;9680;52.520;13.332;2022-10-31T15:21:28;79.20;;;27.90;;
19095;SDS011;9680;52.520;13.332;2022-10-31T15:23:55;79.35;;;27.00;;
19095;SDS011;9680;52.520;13.332;2022-10-31T15:26:25;86.10;;;27.52;;
19095;SDS011;9680;52.520;13.332;2022-10-31T15:29:11;84.07;;;26.65;;
19095;SDS011;9680;52.520;13.332;2022-10-31T15:31:38;81.78;;;26.83;;
19095;SDS011;9680;52.520;13.332;2022-10-31T15:34:20;88.43;;;27.25;;
19095;SDS011;9680;52.520;13.332;2022-10-31T15:36:49;86.25;;;26.23;;
19095;SDS011;9680;52.520;13.332;2022-10-31T15:39:15;75.90;;;26.30;;
19095;SDS011;9680;52.520;13.332;2022-10-31T15:41:49;89.53;;;28.02;;
19095;SDS011;9680;52.520;13.332;2022-10-31T15:44:19;95.05;;;26.92;;
19095;SDS011;9680;52.520;13.332;2022-10-31T15:47:13;77.68;;;26.45;;
19095;SDS011;9680;52.520;13.332;2022-10-31T15:49:42;103.13;;;25.55;;
19095;SDS011;9680;52.520;13.332;2022-10-31T15:53:00;88.72;;;24.52;;
19095;SDS011;9680;52.520;13.332;2022-10-31T15:55:02;79.63;;;25.70;;
19095;SDS011;9680;52.520;13.332;2022-10-31T15:57:49;124.13;;;27.52;;
19095;SDS011;9680;52.520;13.332;2022-10-31T16:05:48;81.85;;;25.55;;
19095;SDS011;9680;52.520;13.332;2022-10-31T16:08:23;80.00;;;26.42;;
19095;SDS011;9680;52.520;13.332;2022-10-31T16:10:51;79.50;;;26.38;;
19095;SDS011;9680;52.520;13.332;2022-10-31T16:13:17;84.93;;;27.85;;
19095;SDS011;9680;52.520;13.332;2022-10-31T16:15:49;74.47;;;25.52;;
19095;SDS011;9680;52.520;13.332;2022-10-31T16:18:16;75.35;;;28.30;;
19095;SDS011;9680;52.520;13.332;2022-10-31T16:20:47;79.57;;;25.17;;
19095;SDS011;9680;52.520;13.332;2022-10-31T16:23:16;74.07;;;26.13;;
19095;SDS011;9680;52.520;13.332;2022-10-31T16:25:42;74.28;;;26.30;;
19095;SDS011;9680;52.520;13.332;2022-10-31T16:28:18;98.75;;;24.98;;
19095;SDS011;9680;52.520;13.332;2022-10-31T16:30:56;85.72;;;26.20;;
19095;SDS011;9680;52.520;13.332;2022-10-31T16:34:00;79.47;;;27.10;;
19095;SDS011;9680;52.520;13.332;2022-10-31T16:36:33;100.90;;;26.42;;
19095;SDS011;9680;52.520;13.332;2022-10-31T16:39:03;107.43;;;26.98;;
19095;SDS011;9680;52.520;13.332;2022-10-31T16:41:29;96.82;;;27.70;;
19095;SDS011;9680;52.520;13.332;2022-10-31T16:43:55;105.03;;;28.33;;
19095;SDS011;9680;52.520;13.332;2022-10-31T16:46:24;101.43;;;29.73;;
19095;SDS011;9680;52.520;13.332;2022-10-31T16:48:52;95.60;;;29.60;;
19095;SDS011;9680;52.520;13.332;2022-10-31T16:51:18;139.27;;;30.92;;
19095;SDS011;9680;52.520;13.332;2022-10-31T16:53:44;107.97;;;30.08;;
19095;SDS011;9680;52.520;13.332;2022-10-31T16:56:24;118.07;;;31.58;;
19095;SDS011;9680;52.520;13.332;2022-10-31T16:58:54;145.57;;;32.42;;
19095;SDS011;9680;52.520;13.332;2022-10-31T17:01:19;135.85;;;32.90;;
19095;SDS011;9680;52.520;13.332;2022-10-31T17:03:45;136.90;;;33.83;;
19095;SDS011;9680;52.520;13.332;2022-10-31T17:06:11;122.70;;;33.28;;
19095;SDS011;9680;52.520;13.332;2022-10-31T17:08:38;121.50;;;32.42;;
19095;SDS011;9680;52.520;13.332;2022-10-31T17:11:03;128.20;;;33.63;;
19095;SDS011;9680;52.520;13.332;2022-10-31T17:13:30;136.88;;;33.05;;
19095;SDS011;9680;52.520;13.332;2022-10-31T17:15:59;126.20;;;33.13;;
19095;SDS011;9680;52.520;13.332;2022-10-31T17:18:28;102.88;;;31.25;;